createdAt,value
2023-01-04T00:01:16.760Z,14.38
2023-01-04T00:03:43.339Z,14.43
2023-01-04T00:06:09.482Z,14.48
2023-01-04T00:08:35.865Z,14.55
2023-01-04T00:11:02.200Z,14.55
2023-01-04T00:13:28.549Z,14.52
2023-01-04T00:15:54.941Z,14.54
2023-01-04T00:18:21.275Z,14.56
2023-01-04T00:20:47.625Z,14.57
2023-01-04T00:23:13.994Z,14.49
2023-01-04T00:25:40.350Z,14.39
2023-01-04T00:28:06.743Z,14.40
2023-01-04T00:30:33.110Z,14.46
2023-01-04T00:32:59.449Z,14.47
2023-01-04T00:35:44.514Z,14.46
2023-01-04T00:37:52.414Z,14.43
2023-01-04T00:40:18.548Z,14.48
2023-01-04T00:42:44.901Z,14.52
2023-01-04T00:45:11.282Z,14.52
2023-01-04T00:47:37.660Z,14.51
2023-01-04T00:50:04.016Z,14.42
2023-01-04T00:52:30.319Z,14.34
2023-01-04T00:54:56.685Z,14.26
2023-01-04T00:57:23.058Z,14.28
2023-01-04T00:59:49.401Z,14.31
2023-01-04T01:02:15.977Z,14.29
2023-01-04T01:04:42.148Z,14.22
2023-01-04T01:07:08.892Z,14.19
2023-01-04T01:09:35.256Z,14.19
2023-01-04T01:12:01.628Z,14.17
2023-01-04T01:14:27.944Z,14.10
2023-01-04T01:16:57.271Z,14.02
2023-01-04T01:19:20.620Z,14.01
2023-01-04T01:21:47.001Z,14.03
2023-01-04T01:24:13.364Z,14.09
2023-01-04T01:26:39.752Z,14.09
2023-01-04T01:29:06.073Z,14.15
2023-01-04T01:31:32.475Z,14.15
2023-01-04T01:33:58.803Z,14.15
2023-01-04T01:36:25.157Z,14.12
2023-01-04T01:38:51.530Z,14.09
2023-01-04T01:41:17.950Z,14.06
2023-01-04T01:43:44.306Z,13.95
2023-01-04T01:46:10.710Z,13.85
2023-01-04T01:48:37.006Z,13.86
2023-01-04T01:51:03.340Z,13.93
2023-01-04T01:53:29.660Z,13.94
2023-01-04T01:55:56.055Z,13.87
2023-01-04T01:58:22.363Z,13.84
2023-01-04T02:00:48.749Z,13.87
2023-01-04T02:03:15.216Z,13.90
2023-01-04T02:05:41.439Z,13.93
2023-01-04T02:08:07.797Z,13.92
2023-01-04T02:10:34.155Z,13.91
2023-01-04T02:13:00.498Z,13.91
2023-01-04T02:15:26.882Z,13.97
2023-01-04T02:17:53.218Z,13.98
2023-01-04T02:20:19.631Z,13.99
2023-01-04T02:22:45.980Z,14.06
2023-01-04T02:25:12.350Z,14.03
2023-01-04T02:27:38.674Z,14.02
2023-01-04T02:30:05.154Z,14.05
2023-01-04T02:32:31.392Z,14.07
2023-01-04T02:34:59.072Z,14.10
2023-01-04T02:37:24.107Z,14.13
2023-01-04T02:39:50.496Z,14.16
2023-01-04T02:42:16.808Z,14.16
2023-01-04T02:44:43.198Z,14.14
2023-01-04T02:47:09.598Z,14.17
2023-01-04T02:49:35.869Z,14.14
2023-01-04T02:52:02.200Z,14.08
2023-01-04T02:54:28.569Z,14.02
2023-01-04T02:56:59.510Z,14.09
2023-01-04T02:59:21.314Z,14.13
2023-01-04T03:01:47.696Z,14.20
2023-01-04T03:04:13.975Z,14.22
2023-01-04T03:06:40.305Z,14.24
2023-01-04T03:09:06.683Z,14.28
2023-01-04T03:11:33.043Z,14.33
2023-01-04T03:13:59.418Z,14.31
2023-01-04T03:16:25.891Z,14.29
2023-01-04T03:18:52.277Z,14.31
2023-01-04T03:21:18.620Z,14.33
2023-01-04T03:23:44.997Z,14.33
2023-01-04T03:26:11.400Z,14.30
2023-01-04T03:28:37.743Z,14.30
2023-01-04T03:31:04.170Z,14.27
2023-01-04T03:33:30.491Z,14.24
2023-01-04T03:35:56.817Z,14.23
2023-01-04T03:38:23.203Z,14.24
2023-01-04T03:40:49.528Z,14.25
2023-01-04T03:43:15.879Z,14.24
2023-01-04T03:45:42.255Z,14.31
2023-01-04T03:48:08.625Z,14.36
2023-01-04T03:50:34.985Z,14.36
2023-01-04T03:53:01.380Z,14.36
2023-01-04T03:55:27.728Z,14.38
2023-01-04T03:57:54.061Z,14.41
2023-01-04T04:00:20.431Z,14.45
2023-01-04T04:02:46.775Z,14.44
2023-01-04T04:05:13.187Z,14.48
2023-01-04T04:07:39.572Z,14.47
2023-01-04T04:10:05.882Z,14.50
2023-01-04T04:12:32.218Z,14.52
2023-01-04T04:14:58.553Z,14.56
2023-01-04T04:17:24.938Z,14.57
2023-01-04T04:19:51.287Z,14.61
2023-01-04T04:22:17.631Z,14.64
2023-01-04T04:24:43.956Z,14.64
2023-01-04T04:27:10.339Z,14.63
2023-01-04T04:29:36.686Z,14.64
2023-01-04T04:32:03.110Z,14.66
2023-01-04T04:34:29.430Z,14.70
2023-01-04T04:36:55.824Z,14.68
2023-01-04T04:39:22.175Z,14.65
2023-01-04T04:41:48.551Z,14.60
2023-01-04T04:44:14.846Z,14.54
2023-01-04T04:46:41.242Z,14.55
2023-01-04T04:49:07.596Z,14.57
2023-01-04T04:51:33.957Z,14.64
2023-01-04T04:54:00.304Z,14.66
2023-01-04T04:56:26.632Z,14.68
2023-01-04T04:58:53.007Z,14.71
2023-01-04T05:01:19.410Z,14.72
2023-01-04T05:03:45.823Z,14.74
2023-01-04T05:06:12.123Z,14.73
2023-01-04T05:08:38.453Z,14.74
2023-01-04T05:11:04.792Z,14.77
2023-01-04T05:13:31.172Z,14.77
2023-01-04T05:15:57.589Z,14.80
2023-01-04T05:18:23.962Z,14.77
2023-01-04T05:20:50.288Z,14.75
2023-01-04T05:23:16.670Z,14.76
2023-01-04T05:25:43.024Z,14.75
2023-01-04T05:28:09.368Z,14.72
2023-01-04T05:30:35.745Z,14.66
2023-01-04T05:33:02.087Z,14.56
2023-01-04T05:35:28.452Z,14.54
2023-01-04T05:37:54.761Z,14.58
2023-01-04T05:40:21.084Z,14.61
2023-01-04T05:42:47.440Z,14.64
2023-01-04T05:45:13.763Z,14.67
2023-01-04T05:47:40.144Z,14.68
2023-01-04T05:50:06.490Z,14.90
2023-01-04T05:52:32.894Z,15.02
2023-01-04T05:54:59.210Z,15.09
2023-01-04T05:57:25.608Z,15.15
2023-01-04T05:59:51.924Z,15.15
2023-01-04T06:02:18.431Z,15.11
2023-01-04T06:04:44.690Z,15.08
2023-01-04T06:07:11.088Z,15.06
2023-01-04T06:09:37.444Z,15.03
2023-01-04T06:12:03.797Z,15.03
2023-01-04T06:14:30.159Z,15.00
2023-01-04T06:16:56.583Z,14.98
2023-01-04T06:19:22.891Z,14.98
2023-01-04T06:21:49.288Z,14.99
2023-01-04T06:24:15.718Z,14.98
2023-01-04T06:26:42.105Z,14.99
2023-01-04T06:29:08.440Z,14.97
2023-01-04T06:31:34.789Z,14.98
2023-01-04T06:34:01.164Z,14.99
2023-01-04T06:36:27.548Z,15.00
2023-01-04T06:38:53.885Z,15.05
2023-01-04T06:41:20.263Z,15.04
2023-01-04T06:43:46.586Z,15.07
2023-01-04T06:46:13.008Z,15.11
2023-01-04T06:48:39.280Z,15.11
2023-01-04T06:51:05.651Z,15.09
2023-01-04T06:53:32.032Z,15.08
2023-01-04T06:55:58.414Z,15.12
2023-01-04T06:58:24.754Z,15.14
2023-01-04T07:00:51.147Z,15.16
2023-01-04T07:03:17.616Z,15.20
2023-01-04T07:05:43.878Z,15.24
2023-01-04T07:08:10.255Z,15.30
2023-01-04T07:10:36.583Z,15.35
2023-01-04T07:13:02.918Z,15.44
2023-01-04T07:15:39.065Z,15.53
2023-01-04T07:17:55.624Z,15.55
2023-01-04T07:20:22.016Z,15.62
2023-01-04T07:22:48.332Z,15.65
2023-01-04T07:25:14.676Z,15.67
2023-01-04T07:27:41.042Z,15.70
2023-01-04T07:30:07.394Z,15.73
2023-01-04T07:32:33.712Z,15.79
2023-01-04T07:35:00.118Z,15.84
2023-01-04T07:37:26.446Z,15.90
2023-01-04T07:39:52.796Z,15.92
2023-01-04T07:42:19.112Z,16.00
2023-01-04T07:44:45.528Z,16.06
2023-01-04T07:47:11.847Z,16.11
2023-01-04T07:49:38.202Z,16.17
2023-01-04T07:52:04.514Z,16.21
2023-01-04T07:54:30.857Z,16.30
2023-01-04T07:56:57.202Z,16.39
2023-01-04T07:59:23.617Z,16.46
2023-01-04T08:01:49.998Z,16.51
2023-01-04T08:04:16.298Z,16.58
2023-01-04T08:06:42.632Z,16.72
2023-01-04T08:09:09.037Z,16.99
2023-01-04T08:11:35.409Z,17.29
2023-01-04T08:14:01.740Z,17.62
2023-01-04T08:16:28.196Z,17.97
2023-01-04T08:18:54.428Z,18.28
2023-01-04T08:21:20.755Z,18.54
2023-01-04T08:23:47.112Z,18.77
2023-01-04T08:26:13.480Z,18.89
2023-01-04T08:28:39.821Z,18.96
2023-01-04T08:31:06.242Z,18.93
2023-01-04T08:33:32.574Z,18.90
2023-01-04T08:35:58.948Z,18.86
2023-01-04T08:41:00.200Z,18.69
2023-01-04T08:43:18.026Z,18.63
2023-01-04T08:45:44.356Z,18.56
2023-01-04T08:48:10.752Z,18.45
2023-01-04T08:50:37.125Z,18.39
2023-01-04T08:53:03.476Z,18.33
2023-01-04T08:55:29.790Z,18.32
2023-01-04T08:57:56.187Z,18.34
2023-01-04T09:00:22.554Z,18.36
2023-01-04T09:02:49.040Z,18.38
2023-01-04T09:05:22.673Z,18.37
2023-01-04T09:07:41.631Z,18.35
2023-01-04T09:10:07.948Z,18.32
2023-01-04T09:12:34.359Z,18.29
2023-01-04T09:15:00.757Z,18.25
2023-01-04T09:17:27.129Z,18.20
2023-01-04T09:19:53.485Z,18.17
2023-01-04T09:22:19.911Z,18.10
2023-01-04T09:24:46.214Z,18.04
2023-01-04T09:27:12.555Z,18.03
2023-01-04T09:29:38.894Z,17.99
2023-01-04T09:32:05.283Z,17.97
2023-01-04T09:34:31.646Z,17.93
2023-01-04T09:36:58.019Z,17.88
2023-01-04T09:39:24.584Z,17.86
2023-01-04T09:41:50.727Z,17.82
2023-01-04T09:44:17.085Z,17.75
2023-01-04T09:46:43.531Z,17.68
2023-01-04T09:49:09.804Z,17.62
2023-01-04T09:51:36.156Z,17.56
2023-01-04T09:54:02.545Z,17.50
2023-01-04T09:56:28.890Z,17.45
2023-01-04T09:58:55.257Z,17.38
2023-01-04T10:01:21.736Z,17.33
2023-01-04T10:03:48.075Z,17.30
2023-01-04T10:06:14.346Z,17.26
2023-01-04T10:08:40.697Z,17.25
2023-01-04T10:11:07.046Z,17.23
2023-01-04T10:13:33.399Z,17.21
2023-01-04T10:15:59.808Z,17.16
2023-01-04T10:23:18.943Z,17.10
2023-01-04T10:25:45.328Z,17.10
2023-01-04T10:28:11.691Z,17.10
2023-01-04T10:30:38.066Z,17.12
2023-01-04T10:33:04.394Z,17.22
2023-01-04T10:35:30.736Z,17.26
2023-01-04T10:37:57.105Z,17.25
2023-01-04T10:40:23.486Z,17.25
2023-01-04T10:42:49.822Z,17.22
2023-01-04T10:45:16.217Z,17.18
2023-01-04T10:47:42.545Z,17.12
2023-01-04T10:50:08.896Z,17.09
2023-01-04T10:52:35.264Z,17.06
2023-01-04T10:55:03.215Z,17.06
2023-01-04T10:57:29.573Z,17.09
2023-01-04T10:59:55.904Z,17.12
2023-01-04T11:02:22.353Z,17.19
2023-01-04T11:04:48.752Z,17.32
2023-01-04T11:07:15.103Z,17.49
2023-01-04T11:09:41.494Z,17.70
2023-01-04T11:12:07.921Z,17.90
2023-01-04T11:14:37.521Z,18.06
2023-01-04T11:17:00.709Z,18.22
2023-01-04T11:19:27.008Z,18.36
2023-01-04T11:21:53.373Z,18.49
2023-01-04T11:24:32.127Z,18.59
2023-01-04T11:26:46.073Z,18.68
2023-01-04T11:29:12.485Z,18.76
2023-01-04T11:31:38.893Z,18.84
2023-01-04T11:34:05.240Z,18.88
2023-01-04T11:36:31.605Z,18.95
2023-01-04T11:38:57.997Z,19.00
2023-01-04T11:41:24.351Z,19.03
2023-01-04T11:43:50.689Z,19.08
2023-01-04T11:46:17.179Z,19.14
2023-01-04T11:48:43.420Z,19.24
2023-01-04T11:51:15.345Z,19.34
2023-01-04T11:53:36.248Z,19.44
2023-01-04T11:56:02.576Z,19.50
2023-01-04T11:58:28.966Z,19.60
2023-01-04T12:00:55.331Z,19.70
2023-01-04T12:03:21.710Z,19.86
2023-01-04T12:05:48.061Z,20.10
2023-01-04T12:08:14.421Z,20.51
2023-01-04T12:10:40.775Z,20.94
2023-01-04T12:13:07.161Z,21.29
2023-01-04T12:15:33.473Z,21.52
2023-01-04T12:17:59.887Z,21.53
2023-01-04T12:20:26.274Z,21.43
2023-01-04T12:22:52.646Z,21.31
2023-01-04T12:25:19.012Z,21.16
2023-01-04T12:27:45.342Z,20.98
2023-01-04T12:30:11.677Z,20.78
2023-01-04T12:32:38.039Z,20.61
2023-01-04T12:35:04.418Z,20.42
2023-01-04T12:37:30.784Z,20.23
2023-01-04T12:39:57.081Z,20.03
2023-01-04T12:42:23.474Z,19.85
2023-01-04T12:44:49.788Z,19.69
2023-01-04T12:47:16.196Z,19.56
2023-01-04T12:49:42.522Z,19.44
2023-01-04T12:54:35.273Z,19.27
2023-01-04T12:57:01.648Z,19.15
2023-01-04T12:59:27.968Z,19.09
2023-01-04T13:01:54.448Z,19.01
2023-01-04T13:04:20.702Z,18.93
2023-01-04T13:06:47.096Z,18.86
2023-01-04T13:09:13.417Z,18.81
2023-01-04T13:11:39.827Z,18.70
2023-01-04T13:14:06.164Z,18.64
2023-01-04T13:16:32.644Z,18.58
2023-01-04T13:18:58.905Z,18.51
2023-01-04T13:21:25.250Z,18.43
2023-01-04T13:23:51.582Z,18.36
2023-01-04T13:26:17.984Z,18.31
2023-01-04T13:28:44.301Z,18.25
2023-01-04T13:31:10.728Z,18.18
2023-01-04T13:33:37.009Z,18.10
2023-01-04T13:36:03.348Z,18.06
2023-01-04T13:38:29.707Z,18.01
2023-01-04T13:40:56.100Z,17.95
2023-01-04T13:43:22.433Z,17.90
2023-01-04T13:45:48.840Z,17.86
2023-01-04T13:48:15.162Z,17.83
2023-01-04T13:50:41.533Z,17.79
2023-01-04T13:53:08.964Z,17.76
2023-01-04T13:55:34.237Z,17.72
2023-01-04T13:58:00.562Z,17.68
2023-01-04T14:00:26.956Z,17.66
2023-01-04T14:02:53.467Z,17.63
2023-01-04T14:05:19.668Z,17.58
2023-01-04T14:07:45.993Z,17.53
2023-01-04T14:10:12.423Z,17.48
2023-01-04T14:12:38.753Z,17.44
2023-01-04T14:15:05.175Z,17.41
2023-01-04T14:17:31.548Z,17.38
2023-01-04T14:19:57.967Z,17.33
2023-01-04T14:22:24.258Z,17.30
2023-01-04T14:27:16.994Z,17.22
2023-01-04T14:29:43.346Z,17.19
2023-01-04T14:32:09.712Z,17.14
2023-01-04T14:34:36.046Z,17.07
2023-01-04T14:37:02.409Z,17.05
2023-01-04T14:39:28.757Z,17.02
2023-01-04T14:41:55.080Z,16.97
2023-01-04T14:44:21.479Z,16.94
2023-01-04T14:46:47.965Z,16.90
2023-01-04T14:49:14.168Z,16.88
2023-01-04T14:51:40.506Z,16.84
2023-01-04T14:54:06.913Z,16.76
2023-01-04T14:56:33.255Z,16.72
2023-01-04T14:58:59.623Z,16.69
2023-01-04T15:01:26.109Z,16.68
2023-01-04T15:03:52.404Z,16.67
2023-01-04T15:06:18.667Z,16.61
2023-01-04T15:08:45.039Z,16.58
2023-01-04T15:11:11.402Z,16.55
2023-01-04T15:13:39.740Z,16.53
2023-01-04T15:16:04.229Z,16.50
2023-01-04T15:18:30.418Z,16.50
2023-01-04T15:20:56.766Z,16.45
2023-01-04T15:23:23.093Z,16.40
2023-01-04T15:25:49.486Z,16.38
2023-01-04T15:28:15.859Z,16.37
2023-01-04T15:30:42.236Z,16.35
2023-01-04T15:33:08.647Z,16.33
2023-01-04T15:35:35.049Z,16.34
2023-01-04T15:38:01.411Z,16.32
2023-01-04T15:40:27.765Z,16.30
2023-01-04T15:42:54.128Z,16.29
2023-01-04T15:45:20.553Z,16.26
2023-01-04T15:47:46.891Z,16.22
2023-01-04T15:50:13.222Z,16.15
2023-01-04T15:52:39.559Z,16.11
2023-01-04T15:55:05.949Z,16.11
2023-01-04T15:57:32.280Z,16.10
2023-01-04T15:59:58.632Z,16.10
2023-01-04T16:02:25.119Z,16.09
2023-01-04T16:04:51.381Z,16.09
2023-01-04T16:07:17.772Z,16.09
2023-01-04T16:09:44.140Z,16.09
2023-01-04T16:12:10.500Z,16.06
2023-01-04T16:14:36.890Z,16.06
2023-01-04T16:17:03.213Z,16.03
2023-01-04T16:19:29.612Z,16.03
2023-01-04T16:21:55.968Z,16.00
2023-01-04T16:25:00.210Z,15.91
2023-01-04T16:26:48.699Z,15.88
2023-01-04T16:29:15.082Z,15.89
2023-01-04T16:31:41.476Z,15.86
2023-01-04T16:34:07.762Z,15.84
2023-01-04T16:36:34.102Z,15.85
2023-01-04T16:39:00.458Z,15.82
2023-01-04T16:41:26.813Z,15.79
2023-01-04T16:43:53.202Z,15.77
2023-01-04T16:46:19.544Z,15.80
2023-01-04T16:48:45.882Z,15.80
2023-01-04T16:51:12.278Z,15.79
2023-01-04T16:53:38.676Z,15.73
2023-01-04T16:56:05.036Z,15.76
2023-01-04T16:58:31.407Z,15.77
2023-01-04T17:00:57.724Z,15.83
2023-01-04T17:03:24.109Z,15.84
2023-01-04T17:05:50.448Z,15.85
2023-01-04T17:08:19.634Z,15.85
2023-01-04T17:10:43.116Z,15.83
2023-01-04T17:13:09.467Z,15.82
2023-01-04T17:15:44.323Z,15.79
2023-01-04T17:18:02.162Z,15.78
2023-01-04T17:20:28.507Z,15.80
2023-01-04T17:22:54.865Z,15.78
2023-01-04T17:25:21.226Z,15.76
2023-01-04T17:27:47.590Z,15.76
2023-01-04T17:30:13.957Z,15.79
2023-01-04T17:32:40.339Z,15.76
2023-01-04T17:35:06.700Z,15.78
2023-01-04T17:37:33.112Z,15.75
2023-01-04T17:39:59.482Z,15.74
2023-01-04T17:42:25.845Z,15.72
2023-01-04T17:44:52.210Z,15.73
2023-01-04T17:47:18.578Z,15.69
2023-01-04T17:49:44.963Z,15.70
2023-01-04T17:52:16.481Z,15.72
2023-01-04T17:54:37.672Z,15.68
2023-01-04T17:57:04.018Z,15.63
2023-01-04T17:59:30.393Z,15.60
2023-01-04T18:01:56.917Z,15.60
2023-01-04T18:04:23.121Z,15.60
2023-01-04T18:06:49.534Z,15.60
2023-01-04T18:09:18.604Z,15.59
2023-01-04T18:11:42.262Z,15.61
2023-01-04T18:14:11.937Z,15.61
2023-01-04T18:16:34.995Z,15.58
2023-01-04T18:19:01.485Z,15.57
2023-01-04T18:21:29.315Z,15.55
2023-01-04T18:24:34.078Z,15.52
2023-01-04T18:26:20.576Z,15.49
2023-01-04T18:28:46.885Z,15.46
2023-01-04T18:31:15.281Z,15.47
2023-01-04T18:33:39.633Z,15.44
2023-01-04T18:36:06.019Z,15.44
2023-01-04T18:38:32.364Z,15.43
2023-01-04T18:40:58.745Z,15.40
2023-01-04T18:43:25.067Z,15.37
2023-01-04T18:45:51.484Z,15.53
2023-01-04T18:48:17.747Z,15.67
2023-01-04T18:50:44.176Z,15.69
2023-01-04T18:53:10.499Z,15.67
2023-01-04T18:55:36.952Z,15.65
2023-01-04T18:58:03.283Z,15.61
2023-01-04T19:00:30.111Z,15.61
2023-01-04T19:02:56.561Z,15.57
2023-01-04T19:05:22.901Z,15.55
2023-01-04T19:07:49.197Z,15.55
2023-01-04T19:10:15.561Z,15.53
2023-01-04T19:12:41.941Z,15.50
2023-01-04T19:15:08.314Z,15.50
2023-01-04T19:17:34.648Z,15.50
2023-01-04T19:20:00.997Z,15.50
2023-01-04T19:22:27.368Z,15.48
2023-01-04T19:24:53.760Z,15.47
2023-01-04T19:27:20.123Z,15.43
2023-01-04T19:29:46.471Z,15.42
2023-01-04T19:32:12.787Z,15.42
2023-01-04T19:34:39.159Z,15.41
2023-01-04T19:37:05.472Z,15.37
2023-01-04T19:39:31.925Z,15.38
2023-01-04T19:41:58.298Z,15.36
2023-01-04T19:44:24.619Z,15.34
2023-01-04T19:46:51.007Z,15.33
2023-01-04T19:49:17.397Z,15.32
2023-01-04T19:51:43.856Z,15.34
2023-01-04T19:54:10.121Z,15.33
2023-01-04T19:56:36.472Z,15.32
2023-01-04T19:59:02.839Z,15.33
2023-01-04T20:01:29.203Z,15.27
2023-01-04T20:03:55.493Z,15.24
2023-01-04T20:06:21.859Z,15.22
2023-01-04T20:08:48.222Z,15.20
2023-01-04T20:11:14.592Z,15.17
2023-01-04T20:13:41.104Z,15.16
2023-01-04T20:16:07.433Z,15.18
2023-01-04T20:18:33.826Z,15.15
2023-01-04T20:21:00.157Z,15.17
2023-01-04T20:23:26.537Z,15.13
2023-01-04T20:25:52.864Z,15.09
2023-01-04T20:28:19.256Z,15.10
2023-01-04T20:30:45.647Z,15.07
2023-01-04T20:33:11.965Z,15.02
2023-01-04T20:35:38.382Z,15.01
2023-01-04T20:38:04.718Z,15.01
2023-01-04T20:40:31.061Z,15.01
2023-01-04T20:42:57.395Z,14.99
2023-01-04T20:45:23.760Z,14.97
2023-01-04T20:47:50.164Z,14.96
2023-01-04T20:50:16.513Z,14.96
2023-01-04T20:52:42.915Z,14.96
2023-01-04T20:55:13.853Z,14.91
2023-01-04T20:57:35.732Z,14.87
2023-01-04T21:00:02.049Z,14.91
2023-01-04T21:02:31.945Z,14.89
2023-01-04T21:04:54.833Z,14.85
2023-01-04T21:07:21.169Z,14.84
2023-01-04T21:09:47.498Z,14.84
2023-01-04T21:12:13.883Z,14.83
2023-01-04T21:14:40.245Z,14.80
2023-01-04T21:17:06.637Z,14.79
2023-01-04T21:19:33.026Z,14.81
2023-01-04T21:21:59.419Z,14.82
2023-01-04T21:24:25.769Z,14.82
2023-01-04T21:26:52.106Z,14.81
2023-01-04T21:29:18.484Z,14.81
2023-01-04T21:31:44.821Z,14.78
2023-01-04T21:34:14.410Z,14.77
2023-01-04T21:36:37.546Z,14.78
2023-01-04T21:39:03.858Z,14.79
2023-01-04T21:41:30.201Z,14.76
2023-01-04T21:43:56.537Z,14.76
2023-01-04T21:46:22.963Z,14.72
2023-01-04T21:48:49.271Z,14.72
2023-01-04T21:51:15.654Z,14.73
2023-01-04T21:53:42.071Z,14.73
2023-01-04T21:56:08.386Z,14.72
2023-01-04T21:58:34.770Z,14.72
2023-01-04T22:01:01.150Z,14.71
2023-01-04T22:03:27.524Z,14.70
2023-01-04T22:05:53.911Z,14.72
2023-01-04T22:08:20.271Z,14.73
2023-01-04T22:10:46.630Z,14.74
2023-01-04T22:13:13.064Z,14.73
2023-01-04T22:15:39.465Z,14.72
2023-01-04T22:18:05.825Z,14.74
2023-01-04T22:20:32.129Z,14.75
2023-01-04T22:22:58.502Z,14.73
2023-01-04T22:25:24.836Z,14.73
2023-01-04T22:27:51.214Z,14.74
2023-01-04T22:30:17.516Z,14.74
2023-01-04T22:32:43.879Z,14.74
2023-01-04T22:35:10.216Z,14.75
2023-01-04T22:37:36.577Z,14.72
2023-01-04T22:40:02.906Z,14.72
2023-01-04T22:42:29.237Z,14.67
2023-01-04T22:44:55.648Z,14.62
2023-01-04T22:47:21.967Z,14.56
2023-01-04T22:49:48.307Z,14.54
2023-01-04T22:52:14.686Z,14.53
2023-01-04T22:54:41.008Z,14.54
2023-01-04T22:57:07.346Z,14.56
2023-01-04T22:59:33.746Z,14.57
2023-01-04T23:02:00.138Z,14.56
2023-01-04T23:04:26.429Z,14.57
2023-01-04T23:06:52.812Z,14.56
2023-01-04T23:09:19.130Z,14.55
2023-01-04T23:11:45.487Z,14.56
2023-01-04T23:14:11.864Z,14.50
2023-01-04T23:16:38.242Z,14.46
2023-01-04T23:19:04.562Z,14.36
2023-01-04T23:21:30.937Z,14.31
2023-01-04T23:23:57.260Z,14.32
2023-01-04T23:26:23.594Z,14.31
2023-01-04T23:28:49.950Z,14.31
2023-01-04T23:31:16.425Z,14.32
2023-01-04T23:33:42.687Z,14.32
2023-01-04T23:36:09.046Z,14.33
2023-01-04T23:38:35.420Z,14.32
2023-01-04T23:41:01.765Z,14.32
2023-01-04T23:43:28.070Z,14.35
2023-01-04T23:45:54.454Z,14.35
2023-01-04T23:48:20.802Z,14.31
2023-01-04T23:50:47.168Z,14.30
2023-01-04T23:53:13.510Z,14.29
2023-01-04T23:55:39.829Z,14.30
2023-01-04T23:58:06.189Z,14.32
